createdAt,value
2023-03-05T00:00:26.148Z,68.37
2023-03-05T00:03:28.697Z,68.24
2023-03-05T00:06:32.476Z,68.12
2023-03-05T00:09:35.903Z,68.33
2023-03-05T00:12:38.971Z,68.80
2023-03-05T00:15:42.937Z,68.36
2023-03-05T00:18:46.479Z,68.34
2023-03-05T00:21:49.050Z,68.65
2023-03-05T00:24:51.911Z,69.00
2023-03-05T00:27:54.365Z,69.09
2023-03-05T00:31:01.458Z,68.92
2023-03-05T00:34:13.295Z,69.15
2023-03-05T00:37:16.982Z,69.28
2023-03-05T00:40:19.863Z,69.47
2023-03-05T00:43:22.541Z,69.59
2023-03-05T00:46:27.461Z,69.45
2023-03-05T00:49:30.319Z,69.58
2023-03-05T00:52:33.346Z,69.67
2023-03-05T00:55:36.303Z,69.38
2023-03-05T00:58:39.658Z,69.22
2023-03-05T01:01:42.265Z,69.46
2023-03-05T01:04:47.266Z,69.31
2023-03-05T01:07:53.953Z,69.17
2023-03-05T01:10:56.731Z,68.85
2023-03-05T01:13:59.174Z,68.89
2023-03-05T01:17:02.005Z,68.80
2023-03-05T01:20:06.044Z,68.56
2023-03-05T01:23:09.185Z,68.42
2023-03-05T01:26:11.630Z,68.49
2023-03-05T01:29:14.095Z,68.02
2023-03-05T01:32:16.639Z,68.13
2023-03-05T01:35:22.440Z,68.32
2023-03-05T01:38:25.813Z,68.13
2023-03-05T01:41:28.420Z,68.15
2023-03-05T01:44:31.956Z,68.65
2023-03-05T01:47:34.357Z,68.58
2023-03-05T01:50:36.905Z,69.08
2023-03-05T01:53:40.801Z,68.39
2023-03-05T01:56:45.968Z,68.62
2023-03-05T01:59:53.607Z,68.86
2023-03-05T02:02:58.547Z,68.70
2023-03-05T02:06:01.023Z,68.41
2023-03-05T02:09:04.366Z,68.50
2023-03-05T02:12:08.771Z,68.48
2023-03-05T02:15:12.841Z,68.17
2023-03-05T02:18:16.686Z,68.46
2023-03-05T02:21:42.663Z,68.21
2023-03-05T02:24:45.259Z,68.46
2023-03-05T02:28:10.383Z,68.12
2023-03-05T02:31:15.852Z,67.79
2023-03-05T02:34:18.396Z,67.68
2023-03-05T02:37:21.121Z,67.55
2023-03-05T02:40:24.463Z,68.23
2023-03-05T02:43:27.107Z,68.00
2023-03-05T02:46:29.912Z,67.87
2023-03-05T02:49:32.448Z,67.92
2023-03-05T02:52:35.669Z,68.39
2023-03-05T02:55:39.939Z,68.26
2023-03-05T02:58:43.059Z,68.62
2023-03-05T03:01:45.857Z,68.11
2023-03-05T03:04:48.370Z,68.37
2023-03-05T03:07:50.965Z,68.40
2023-03-05T03:10:53.596Z,68.68
2023-03-05T03:13:56.053Z,68.17
2023-03-05T03:16:59.493Z,68.44
2023-03-05T03:20:04.044Z,68.17
2023-03-05T03:23:07.447Z,67.98
2023-03-05T03:26:09.931Z,67.82
2023-03-05T03:29:13.577Z,67.71
2023-03-05T03:32:16.183Z,67.57
2023-03-05T03:35:19.126Z,67.68
2023-03-05T03:38:21.553Z,67.40
2023-03-05T03:41:24.538Z,67.50
2023-03-05T03:44:27.195Z,68.11
2023-03-05T03:47:30.818Z,67.76
2023-03-05T03:50:33.343Z,67.98
2023-03-05T03:53:36.013Z,68.10
2023-03-05T03:56:38.644Z,67.82
2023-03-05T03:59:41.497Z,67.91
2023-03-05T04:02:44.400Z,68.17
2023-03-05T04:05:48.348Z,68.38
2023-03-05T04:08:51.043Z,67.89
2023-03-05T04:11:53.586Z,68.52
2023-03-05T04:14:56.111Z,68.38
2023-03-05T04:17:58.741Z,68.15
2023-03-05T04:21:01.282Z,68.21
2023-03-05T04:24:04.184Z,68.40
2023-03-05T04:27:07.039Z,67.92
2023-03-05T04:30:14.821Z,68.09
2023-03-05T04:33:19.197Z,68.18
2023-03-05T04:36:22.122Z,68.40
2023-03-05T04:39:25.326Z,68.03
2023-03-05T04:42:27.882Z,68.04
2023-03-05T04:45:30.530Z,68.38
2023-03-05T04:48:33.083Z,68.09
2023-03-05T04:51:35.651Z,68.08
2023-03-05T04:54:38.939Z,68.23
2023-03-05T04:57:41.516Z,67.72
2023-03-05T05:00:44.088Z,68.11
2023-03-05T05:03:46.625Z,68.12
2023-03-05T05:06:49.220Z,67.98
2023-03-05T05:09:52.177Z,67.80
2023-03-05T05:12:54.725Z,67.74
2023-03-05T05:15:57.954Z,67.92
2023-03-05T05:19:00.505Z,68.16
2023-03-05T05:22:03.451Z,67.90
2023-03-05T05:25:08.030Z,67.85
2023-03-05T05:28:11.618Z,68.10
2023-03-05T05:31:16.517Z,67.95
2023-03-05T05:34:19.002Z,67.46
2023-03-05T05:37:22.096Z,67.08
2023-03-05T05:40:24.525Z,67.08
2023-03-05T05:43:28.448Z,66.42
2023-03-05T05:46:32.061Z,66.16
2023-03-05T05:49:34.583Z,65.75
2023-03-05T05:52:37.401Z,65.55
2023-03-05T05:55:41.223Z,65.73
2023-03-05T05:58:47.201Z,65.51
2023-03-05T06:01:49.868Z,65.65
2023-03-05T06:04:52.485Z,65.25
2023-03-05T06:07:55.025Z,64.51
2023-03-05T06:10:57.575Z,64.84
2023-03-05T06:14:02.601Z,64.81
2023-03-05T06:17:05.196Z,64.43
2023-03-05T06:20:09.262Z,64.23
2023-03-05T06:23:11.784Z,64.14
2023-03-05T06:26:17.501Z,64.44
2023-03-05T06:29:19.984Z,63.95
2023-03-05T06:32:23.123Z,64.10
2023-03-05T06:35:25.586Z,63.64
2023-03-05T06:38:28.109Z,63.91
2023-03-05T06:41:32.837Z,63.87
2023-03-05T06:44:35.317Z,64.08
2023-03-05T06:47:37.887Z,64.11
2023-03-05T06:50:40.398Z,63.95
2023-03-05T06:53:43.681Z,63.88
2023-03-05T06:56:47.165Z,64.06
2023-03-05T06:59:49.891Z,64.09
2023-03-05T07:02:53.876Z,64.75
2023-03-05T07:05:56.502Z,64.75
2023-03-05T07:09:03.597Z,64.52
2023-03-05T07:12:07.664Z,64.70
2023-03-05T07:15:10.729Z,64.16
2023-03-05T07:18:13.233Z,63.97
2023-03-05T07:21:20.967Z,64.21
2023-03-05T07:24:27.414Z,64.40
2023-03-05T07:27:29.976Z,64.50
2023-03-05T07:30:34.220Z,64.34
2023-03-05T07:33:37.316Z,64.15
2023-03-05T07:36:40.597Z,64.10
2023-03-05T07:39:43.375Z,63.51
2023-03-05T07:42:46.876Z,63.91
2023-03-05T07:45:58.716Z,63.87
2023-03-05T07:49:01.478Z,63.51
2023-03-05T07:52:04.175Z,63.30
2023-03-05T07:55:07.056Z,63.23
2023-03-05T07:58:10.506Z,63.54
2023-03-05T08:01:14.446Z,63.95
2023-03-05T08:04:17.148Z,63.76
2023-03-05T08:07:19.750Z,63.87
2023-03-05T08:10:22.470Z,64.04
2023-03-05T08:13:24.916Z,63.77
2023-03-05T08:16:28.044Z,63.41
2023-03-05T08:19:30.757Z,62.89
2023-03-05T08:22:34.861Z,62.70
2023-03-05T08:25:38.447Z,62.36
2023-03-05T08:28:41.029Z,61.47
2023-03-05T08:31:46.495Z,60.86
2023-03-05T08:34:48.928Z,61.20
2023-03-05T08:37:51.816Z,60.21
2023-03-05T08:40:54.342Z,61.22
2023-03-05T08:43:56.963Z,61.65
2023-03-05T08:46:59.443Z,60.97
2023-03-05T08:50:02.101Z,61.47
2023-03-05T08:53:04.756Z,61.43
2023-03-05T08:56:07.984Z,61.63
2023-03-05T08:59:12.658Z,61.57
2023-03-05T09:02:16.344Z,61.14
2023-03-05T09:05:19.530Z,60.31
2023-03-05T09:08:22.163Z,61.25
2023-03-05T09:11:24.739Z,61.62
2023-03-05T09:14:30.316Z,61.85
2023-03-05T09:17:32.798Z,62.62
2023-03-05T09:20:36.203Z,62.24
2023-03-05T09:23:39.335Z,62.31
2023-03-05T09:26:42.400Z,62.78
2023-03-05T09:29:44.914Z,63.17
2023-03-05T09:32:47.521Z,62.71
2023-03-05T09:35:50.250Z,62.06
2023-03-05T09:38:55.290Z,62.12
2023-03-05T09:42:38.953Z,61.86
2023-03-05T09:46:14.991Z,62.60
2023-03-05T09:49:23.252Z,62.46
2023-03-05T09:52:45.520Z,64.00
2023-03-05T09:55:54.010Z,66.14
2023-03-05T09:59:32.085Z,64.39
2023-03-05T10:02:40.131Z,64.53
2023-03-05T10:05:45.628Z,64.80
2023-03-05T10:09:24.840Z,64.02
2023-03-05T10:12:46.128Z,64.58
2023-03-05T10:16:15.748Z,63.60
2023-03-05T10:19:34.878Z,63.76
2023-03-05T10:22:40.377Z,64.54
2023-03-05T10:25:54.725Z,62.85
2023-03-05T10:29:35.538Z,62.76
2023-03-05T10:33:08.742Z,61.84
2023-03-05T10:36:46.157Z,60.90
2023-03-05T10:40:05.727Z,59.31
2023-03-05T10:43:40.707Z,59.82
2023-03-05T10:46:50.046Z,58.88
2023-03-05T10:49:55.330Z,58.97
2023-03-05T10:53:21.203Z,58.58
2023-03-05T10:56:26.519Z,58.67
2023-03-05T10:59:29.695Z,58.08
2023-03-05T11:02:33.813Z,57.07
2023-03-05T11:05:39.300Z,57.22
2023-03-05T11:08:42.510Z,57.11
2023-03-05T11:12:16.200Z,56.86
2023-03-05T11:15:26.937Z,57.75
2023-03-05T11:18:34.810Z,57.60
2023-03-05T11:21:38.029Z,57.14
2023-03-05T11:24:41.842Z,57.35
2023-03-05T11:27:54.573Z,56.98
2023-03-05T11:31:00.679Z,56.75
2023-03-05T11:34:23.774Z,56.92
2023-03-05T11:37:29.486Z,57.18
2023-03-05T11:40:37.427Z,57.36
2023-03-05T11:43:43.097Z,57.95
2023-03-05T11:46:50.468Z,57.65
2023-03-05T11:50:00.730Z,57.55
2023-03-05T11:53:09.583Z,57.06
2023-03-05T11:56:24.398Z,57.25
2023-03-05T11:59:35.358Z,56.28
2023-03-05T12:02:38.593Z,56.60
2023-03-05T12:05:46.964Z,57.27
2023-03-05T12:08:55.187Z,56.88
2023-03-05T12:12:21.624Z,55.89
2023-03-05T12:16:12.497Z,55.70
2023-03-05T12:19:21.246Z,56.15
2023-03-05T12:22:27.108Z,56.25
2023-03-05T12:25:35.345Z,55.06
2023-03-05T12:28:46.209Z,54.83
2023-03-05T12:31:49.217Z,54.66
2023-03-05T12:35:01.635Z,52.44
2023-03-05T12:38:32.733Z,53.98
2023-03-05T12:41:35.764Z,53.33
2023-03-05T12:44:39.865Z,53.88
2023-03-05T12:48:11.945Z,53.17
2023-03-05T12:51:28.075Z,51.64
2023-03-05T12:54:35.833Z,49.78
2023-03-05T12:57:38.781Z,50.08
2023-03-05T13:00:49.548Z,50.39
2023-03-05T13:03:58.471Z,49.68
2023-03-05T13:07:04.580Z,50.13
2023-03-05T13:10:21.399Z,49.36
2023-03-05T13:13:26.756Z,48.88
2023-03-05T13:16:37.877Z,49.44
2023-03-05T13:19:41.925Z,50.29
2023-03-05T13:22:44.904Z,50.15
2023-03-05T13:26:03.893Z,51.00
2023-03-05T13:29:12.423Z,51.75
2023-03-05T13:32:35.428Z,52.74
2023-03-05T13:35:45.571Z,52.81
2023-03-05T13:38:49.072Z,52.95
2023-03-05T13:41:58.135Z,52.91
2023-03-05T13:45:05.763Z,53.07
2023-03-05T13:48:20.167Z,53.64
2023-03-05T13:51:23.649Z,52.98
2023-03-05T13:54:27.839Z,52.50
2023-03-05T13:57:40.097Z,51.34
2023-03-05T14:00:43.637Z,51.40
2023-03-05T14:03:50.355Z,51.66
2023-03-05T14:06:58.668Z,51.24
2023-03-05T14:10:03.215Z,52.16
2023-03-05T14:13:13.733Z,51.87
2023-03-05T14:16:24.441Z,52.57
2023-03-05T14:19:38.942Z,52.05
2023-03-05T14:22:46.250Z,51.73
2023-03-05T14:25:49.193Z,52.29
2023-03-05T14:29:00.360Z,52.58
2023-03-05T14:32:08.836Z,52.16
2023-03-05T14:35:20.326Z,52.17
2023-03-05T14:38:29.056Z,51.27
2023-03-05T14:41:41.981Z,51.82
2023-03-05T14:44:44.725Z,52.01
2023-03-05T14:47:47.854Z,52.00
2023-03-05T14:50:56.646Z,52.17
2023-03-05T14:53:59.901Z,52.14
2023-03-05T14:57:05.332Z,52.00
2023-03-05T15:00:20.420Z,52.30
2023-03-05T15:03:23.727Z,52.83
2023-03-05T15:06:34.340Z,53.29
2023-03-05T15:09:38.045Z,53.31
2023-03-05T15:12:40.880Z,53.30
2023-03-05T15:15:45.541Z,53.62
2023-03-05T15:18:49.232Z,53.49
2023-03-05T15:21:52.264Z,53.81
2023-03-05T15:24:55.057Z,53.01
2023-03-05T15:27:57.628Z,53.55
2023-03-05T15:31:01.217Z,52.99
2023-03-05T15:34:04.683Z,53.89
2023-03-05T15:37:07.668Z,53.00
2023-03-05T15:40:11.190Z,53.63
2023-03-05T15:43:14.130Z,53.51
2023-03-05T15:46:17.066Z,53.53
2023-03-05T15:49:24.441Z,54.09
2023-03-05T15:52:27.314Z,53.93
2023-03-05T15:55:30.270Z,54.02
2023-03-05T15:58:34.045Z,53.87
2023-03-05T16:01:37.712Z,54.73
2023-03-05T16:04:41.617Z,54.69
2023-03-05T16:07:48.716Z,54.64
2023-03-05T16:10:53.385Z,54.62
2023-03-05T16:13:57.003Z,54.64
2023-03-05T16:17:03.320Z,54.57
2023-03-05T16:20:06.748Z,54.68
2023-03-05T16:23:09.583Z,54.79
2023-03-05T16:26:12.352Z,54.83
2023-03-05T16:29:15.151Z,54.92
2023-03-05T16:32:17.988Z,54.81
2023-03-05T16:35:20.874Z,54.49
2023-03-05T16:38:23.645Z,54.60
2023-03-05T16:41:27.211Z,54.58
2023-03-05T16:44:30.084Z,54.83
2023-03-05T16:47:32.995Z,53.90
2023-03-05T16:50:36.123Z,53.67
2023-03-05T16:53:39.855Z,53.74
2023-03-05T16:56:42.654Z,54.17
2023-03-05T16:59:45.614Z,54.66
2023-03-05T17:02:50.003Z,54.68
2023-03-05T17:05:52.873Z,54.38
2023-03-05T17:08:57.681Z,54.03
2023-03-05T17:12:01.168Z,53.24
2023-03-05T17:15:04.575Z,53.66
2023-03-05T17:18:08.070Z,53.41
2023-03-05T17:21:12.040Z,53.41
2023-03-05T17:24:15.194Z,53.35
2023-03-05T17:27:22.741Z,53.29
2023-03-05T17:30:25.541Z,53.04
2023-03-05T17:33:29.100Z,52.87
2023-03-05T17:36:32.269Z,52.61
2023-03-05T17:39:35.167Z,52.19
2023-03-05T17:42:38.692Z,52.54
2023-03-05T17:45:41.765Z,52.59
2023-03-05T17:48:45.094Z,53.26
2023-03-05T17:51:47.979Z,53.10
2023-03-05T17:54:53.128Z,53.24
2023-03-05T17:57:56.780Z,53.45
2023-03-05T18:01:00.434Z,53.60
2023-03-05T18:04:03.447Z,53.93
2023-03-05T18:07:06.184Z,54.41
2023-03-05T18:10:13.180Z,54.28
2023-03-05T18:13:17.518Z,54.51
2023-03-05T18:16:20.428Z,54.48
2023-03-05T18:19:23.061Z,54.47
2023-03-05T18:22:26.880Z,54.41
2023-03-05T18:25:33.243Z,54.38
2023-03-05T18:28:35.999Z,54.51
2023-03-05T18:31:38.837Z,54.66
2023-03-05T18:34:41.453Z,54.95
2023-03-05T18:37:44.201Z,55.17
2023-03-05T18:40:51.218Z,55.12
2023-03-05T18:43:54.697Z,55.19
2023-03-05T18:46:58.071Z,55.62
2023-03-05T18:50:02.668Z,55.34
2023-03-05T18:53:05.453Z,55.57
2023-03-05T18:56:09.470Z,55.29
2023-03-05T18:59:12.373Z,55.65
2023-03-05T19:02:16.707Z,55.66
2023-03-05T19:05:19.855Z,55.70
2023-03-05T19:08:22.756Z,55.67
2023-03-05T19:11:25.709Z,55.73
2023-03-05T19:14:28.470Z,56.36
2023-03-05T19:17:32.009Z,56.78
2023-03-05T19:20:36.096Z,57.77
2023-03-05T19:23:39.267Z,58.32
2023-03-05T19:26:42.719Z,58.27
2023-03-05T19:29:46.472Z,58.68
2023-03-05T19:32:49.797Z,58.73
2023-03-05T19:35:53.262Z,58.96
2023-03-05T19:38:56.249Z,59.17
2023-03-05T19:41:59.225Z,59.39
2023-03-05T19:45:02.929Z,59.09
2023-03-05T19:48:06.388Z,59.38
2023-03-05T19:51:14.722Z,59.33
2023-03-05T19:54:19.399Z,60.17
2023-03-05T19:57:21.950Z,59.63
2023-03-05T20:00:28.576Z,59.44
2023-03-05T20:03:31.432Z,59.78
2023-03-05T20:06:35.005Z,60.51
2023-03-05T20:09:38.358Z,60.23
2023-03-05T20:12:41.144Z,60.42
2023-03-05T20:15:43.697Z,60.43
2023-03-05T20:18:47.839Z,59.99
2023-03-05T20:21:50.687Z,60.46
2023-03-05T20:24:53.475Z,59.21
2023-03-05T20:27:56.587Z,59.29
2023-03-05T20:31:01.327Z,58.99
2023-03-05T20:34:10.092Z,59.23
2023-03-05T20:37:12.835Z,59.14
2023-03-05T20:40:16.905Z,59.07
2023-03-05T20:43:22.123Z,59.39
2023-03-05T20:46:31.307Z,59.02
2023-03-05T20:49:33.961Z,58.85
2023-03-05T20:52:38.382Z,58.80
2023-03-05T20:55:41.910Z,58.74
2023-03-05T20:58:45.105Z,58.77
2023-03-05T21:01:48.147Z,58.99
2023-03-05T21:04:51.016Z,58.97
2023-03-05T21:07:54.032Z,58.84
2023-03-05T21:10:57.357Z,58.76
2023-03-05T21:14:00.146Z,58.77
2023-03-05T21:17:03.992Z,58.21
2023-03-05T21:20:08.029Z,58.64
2023-03-05T21:23:10.725Z,58.69
2023-03-05T21:26:14.101Z,58.04
2023-03-05T21:29:17.436Z,58.18
2023-03-05T21:32:20.357Z,58.26
2023-03-05T21:35:24.603Z,58.00
2023-03-05T21:38:30.640Z,58.05
2023-03-05T21:41:33.499Z,57.80
2023-03-05T21:44:38.964Z,58.23
2023-03-05T21:47:42.349Z,58.40
2023-03-05T21:50:46.342Z,58.29
2023-03-05T21:53:49.630Z,58.52
2023-03-05T21:56:52.952Z,58.76
2023-03-05T21:59:55.436Z,58.69
2023-03-05T22:02:57.975Z,58.86
2023-03-05T22:06:00.460Z,58.96
2023-03-05T22:09:03.722Z,58.62
2023-03-05T22:12:53.500Z,58.85
2023-03-05T22:16:05.765Z,59.03
2023-03-05T22:19:10.153Z,59.00
2023-03-05T22:22:12.807Z,58.54
2023-03-05T22:25:16.116Z,58.34
2023-03-05T22:28:18.623Z,58.97
2023-03-05T22:31:26.044Z,58.92
2023-03-05T22:34:29.190Z,59.02
2023-03-05T22:37:32.708Z,59.21
2023-03-05T22:40:37.646Z,59.21
2023-03-05T22:43:40.600Z,59.50
2023-03-05T22:46:44.395Z,59.31
2023-03-05T22:49:47.022Z,59.64
2023-03-05T22:52:49.960Z,60.01
2023-03-05T22:55:52.577Z,60.51
2023-03-05T22:58:55.237Z,60.97
2023-03-05T23:01:58.261Z,61.47
2023-03-05T23:05:01.607Z,61.47
2023-03-05T23:08:04.377Z,61.66
2023-03-05T23:11:09.861Z,61.46
2023-03-05T23:14:12.733Z,61.48
2023-03-05T23:17:15.411Z,62.17
2023-03-05T23:20:20.936Z,62.83
2023-03-05T23:23:23.537Z,63.34
2023-03-05T23:26:25.942Z,63.48
2023-03-05T23:30:09.342Z,63.47
2023-03-05T23:33:19.695Z,63.28
2023-03-05T23:36:25.915Z,63.96
2023-03-05T23:39:28.844Z,63.63
2023-03-05T23:42:32.946Z,63.52
2023-03-05T23:45:35.444Z,63.48
2023-03-05T23:48:38.028Z,63.58
2023-03-05T23:51:40.853Z,63.91
2023-03-05T23:54:43.569Z,64.12
2023-03-05T23:57:47.134Z,63.58
